sensor_id;sensor_type;location;lat;lon;timestamp;temperature;humidity
5508;DHT22;2776;51.046;6.772;2022-12-17T00:01:12;0.10;99.90
5508;DHT22;2776;51.046;6.772;2022-12-17T00:03:56;0.20;99.90
5508;DHT22;2776;51.046;6.772;2022-12-17T00:06:40;0.30;99.90
5508;DHT22;2776;51.046;6.772;2022-12-17T00:09:25;0.40;99.90
5508;DHT22;2776;51.046;6.772;2022-12-17T00:12:09;0.40;99.90
5508;DHT22;2776;51.046;6.772;2022-12-17T00:15:05;0.30;99.90
5508;DHT22;2776;51.046;6.772;2022-12-17T00:17:50;0.30;99.90
5508;DHT22;2776;51.046;6.772;2022-12-17T00:20:34;0.20;99.90
5508;DHT22;2776;51.046;6.772;2022-12-17T00:23:19;0.10;99.90
5508;DHT22;2776;51.046;6.772;2022-12-17T00:26:18;0.00;99.90
5508;DHT22;2776;51.046;6.772;2022-12-17T00:29:02;-0.10;99.90
5508;DHT22;2776;51.046;6.772;2022-12-17T00:31:46;-0.20;99.90
5508;DHT22;2776;51.046;6.772;2022-12-17T00:34:31;-0.20;99.90
5508;DHT22;2776;51.046;6.772;2022-12-17T00:37:15;-0.20;99.90
5508;DHT22;2776;51.046;6.772;2022-12-17T00:40:00;-0.30;99.90
5508;DHT22;2776;51.046;6.772;2022-12-17T00:42:44;-0.30;99.90
5508;DHT22;2776;51.046;6.772;2022-12-17T00:45:29;-0.40;99.90
5508;DHT22;2776;51.046;6.772;2022-12-17T00:48:13;-0.60;99.90
5508;DHT22;2776;51.046;6.772;2022-12-17T00:50:59;-0.50;99.90
5508;DHT22;2776;51.046;6.772;2022-12-17T00:53:44;-0.50;99.90
5508;DHT22;2776;51.046;6.772;2022-12-17T00:56:29;-0.50;99.90
5508;DHT22;2776;51.046;6.772;2022-12-17T00:59:13;-0.40;99.90
5508;DHT22;2776;51.046;6.772;2022-12-17T01:01:57;-0.30;99.90
5508;DHT22;2776;51.046;6.772;2022-12-17T01:04:47;-0.40;99.90
5508;DHT22;2776;51.046;6.772;2022-12-17T01:07:31;-0.50;99.90
5508;DHT22;2776;51.046;6.772;2022-12-17T01:10:16;-0.50;99.90
5508;DHT22;2776;51.046;6.772;2022-12-17T01:13:02;-0.60;99.90
5508;DHT22;2776;51.046;6.772;2022-12-17T01:15:46;-0.50;99.90
5508;DHT22;2776;51.046;6.772;2022-12-17T01:18:30;-0.50;99.90
5508;DHT22;2776;51.046;6.772;2022-12-17T01:21:14;-0.50;99.90
5508;DHT22;2776;51.046;6.772;2022-12-17T01:23:58;-0.30;99.90
5508;DHT22;2776;51.046;6.772;2022-12-17T01:26:44;-0.30;99.90
5508;DHT22;2776;51.046;6.772;2022-12-17T01:29:30;-0.30;99.90
5508;DHT22;2776;51.046;6.772;2022-12-17T01:32:15;-0.40;99.90
5508;DHT22;2776;51.046;6.772;2022-12-17T01:34:59;-0.40;99.90
5508;DHT22;2776;51.046;6.772;2022-12-17T01:37:44;-0.30;99.90
5508;DHT22;2776;51.046;6.772;2022-12-17T01:40:28;-0.20;99.90
5508;DHT22;2776;51.046;6.772;2022-12-17T01:43:12;-0.20;99.90
5508;DHT22;2776;51.046;6.772;2022-12-17T01:45:58;-0.10;99.90
5508;DHT22;2776;51.046;6.772;2022-12-17T01:48:45;-0.10;99.90
5508;DHT22;2776;51.046;6.772;2022-12-17T01:51:30;-0.10;99.90
5508;DHT22;2776;51.046;6.772;2022-12-17T01:54:15;-0.20;99.90
5508;DHT22;2776;51.046;6.772;2022-12-17T01:57:01;-0.20;99.90
5508;DHT22;2776;51.046;6.772;2022-12-17T01:59:48;-0.20;99.90
5508;DHT22;2776;51.046;6.772;2022-12-17T02:02:35;-0.30;99.90
5508;DHT22;2776;51.046;6.772;2022-12-17T02:05:22;-0.30;99.90
5508;DHT22;2776;51.046;6.772;2022-12-17T02:08:17;-0.30;99.90
5508;DHT22;2776;51.046;6.772;2022-12-17T02:11:10;-0.30;99.90
5508;DHT22;2776;51.046;6.772;2022-12-17T02:14:04;-0.30;99.90
5508;DHT22;2776;51.046;6.772;2022-12-17T02:16:55;-0.20;99.90
5508;DHT22;2776;51.046;6.772;2022-12-17T02:19:51;-0.20;99.90
5508;DHT22;2776;51.046;6.772;2022-12-17T02:22:44;-0.10;99.90
5508;DHT22;2776;51.046;6.772;2022-12-17T02:25:36;0.00;99.90
5508;DHT22;2776;51.046;6.772;2022-12-17T02:28:24;-0.10;99.90
5508;DHT22;2776;51.046;6.772;2022-12-17T02:31:09;-0.20;99.90
5508;DHT22;2776;51.046;6.772;2022-12-17T02:33:55;-0.40;99.90
5508;DHT22;2776;51.046;6.772;2022-12-17T02:36:40;-0.30;99.90
5508;DHT22;2776;51.046;6.772;2022-12-17T02:39:24;-0.20;99.90
5508;DHT22;2776;51.046;6.772;2022-12-17T02:42:09;-0.20;99.90
5508;DHT22;2776;51.046;6.772;2022-12-17T02:44:55;-0.10;99.90
5508;DHT22;2776;51.046;6.772;2022-12-17T02:47:39;-0.20;99.90
5508;DHT22;2776;51.046;6.772;2022-12-17T02:50:24;-0.10;99.90
5508;DHT22;2776;51.046;6.772;2022-12-17T02:53:08;0.00;99.90
5508;DHT22;2776;51.046;6.772;2022-12-17T02:55:52;0.00;99.90
5508;DHT22;2776;51.046;6.772;2022-12-17T02:58:36;-0.10;99.90
5508;DHT22;2776;51.046;6.772;2022-12-17T03:01:22;-0.10;99.90
5508;DHT22;2776;51.046;6.772;2022-12-17T03:04:06;0.00;99.90
5508;DHT22;2776;51.046;6.772;2022-12-17T03:06:50;-0.10;99.90
5508;DHT22;2776;51.046;6.772;2022-12-17T03:09:34;-0.20;99.90
5508;DHT22;2776;51.046;6.772;2022-12-17T03:12:18;-0.20;99.90
5508;DHT22;2776;51.046;6.772;2022-12-17T03:15:03;-0.30;99.90
5508;DHT22;2776;51.046;6.772;2022-12-17T03:17:48;-0.30;99.90
5508;DHT22;2776;51.046;6.772;2022-12-17T03:20:32;-0.30;99.90
5508;DHT22;2776;51.046;6.772;2022-12-17T03:23:31;-0.30;99.90
5508;DHT22;2776;51.046;6.772;2022-12-17T03:26:15;-0.20;99.90
5508;DHT22;2776;51.046;6.772;2022-12-17T03:28:59;-0.20;99.90
5508;DHT22;2776;51.046;6.772;2022-12-17T03:31:43;-0.10;99.90
5508;DHT22;2776;51.046;6.772;2022-12-17T03:34:29;-0.20;99.90
5508;DHT22;2776;51.046;6.772;2022-12-17T03:37:28;-0.20;99.90
5508;DHT22;2776;51.046;6.772;2022-12-17T03:40:12;-0.20;99.90
5508;DHT22;2776;51.046;6.772;2022-12-17T03:42:56;-0.20;99.90
5508;DHT22;2776;51.046;6.772;2022-12-17T03:45:41;-0.10;99.90
5508;DHT22;2776;51.046;6.772;2022-12-17T03:48:25;-0.20;99.90
5508;DHT22;2776;51.046;6.772;2022-12-17T03:51:10;-0.20;99.90
5508;DHT22;2776;51.046;6.772;2022-12-17T03:53:55;-0.30;99.90
5508;DHT22;2776;51.046;6.772;2022-12-17T03:56:39;-0.40;99.90
5508;DHT22;2776;51.046;6.772;2022-12-17T03:59:23;-0.30;99.90
5508;DHT22;2776;51.046;6.772;2022-12-17T04:02:12;-0.30;99.90
5508;DHT22;2776;51.046;6.772;2022-12-17T04:04:56;-0.40;99.90
5508;DHT22;2776;51.046;6.772;2022-12-17T04:07:42;-0.40;99.90
5508;DHT22;2776;51.046;6.772;2022-12-17T04:10:26;-0.30;99.90
5508;DHT22;2776;51.046;6.772;2022-12-17T04:13:10;-0.30;99.90
5508;DHT22;2776;51.046;6.772;2022-12-17T04:15:54;-0.40;99.90
5508;DHT22;2776;51.046;6.772;2022-12-17T04:18:39;-0.40;99.90
5508;DHT22;2776;51.046;6.772;2022-12-17T04:21:23;-0.40;99.90
5508;DHT22;2776;51.046;6.772;2022-12-17T04:24:08;-0.50;99.90
5508;DHT22;2776;51.046;6.772;2022-12-17T04:26:52;-0.50;99.90
5508;DHT22;2776;51.046;6.772;2022-12-17T04:29:36;-0.40;99.90
5508;DHT22;2776;51.046;6.772;2022-12-17T04:32:21;-0.60;99.90
5508;DHT22;2776;51.046;6.772;2022-12-17T04:35:05;-0.60;99.90
5508;DHT22;2776;51.046;6.772;2022-12-17T04:37:49;-0.80;99.90
5508;DHT22;2776;51.046;6.772;2022-12-17T04:40:35;-0.70;99.90
5508;DHT22;2776;51.046;6.772;2022-12-17T04:43:19;-0.80;99.90
5508;DHT22;2776;51.046;6.772;2022-12-17T04:46:03;-0.80;99.90
5508;DHT22;2776;51.046;6.772;2022-12-17T04:48:47;-0.80;99.90
5508;DHT22;2776;51.046;6.772;2022-12-17T04:51:31;-0.70;99.90
5508;DHT22;2776;51.046;6.772;2022-12-17T04:54:15;-0.70;99.90
5508;DHT22;2776;51.046;6.772;2022-12-17T04:57:01;-0.80;99.90
5508;DHT22;2776;51.046;6.772;2022-12-17T04:59:45;-0.70;99.90
5508;DHT22;2776;51.046;6.772;2022-12-17T05:02:29;-0.70;99.90
5508;DHT22;2776;51.046;6.772;2022-12-17T05:05:13;-0.90;99.90
5508;DHT22;2776;51.046;6.772;2022-12-17T05:07:57;-0.80;99.90
5508;DHT22;2776;51.046;6.772;2022-12-17T05:10:41;-0.70;99.90
5508;DHT22;2776;51.046;6.772;2022-12-17T05:13:27;-0.60;99.90
5508;DHT22;2776;51.046;6.772;2022-12-17T05:16:12;-0.60;99.90
5508;DHT22;2776;51.046;6.772;2022-12-17T05:18:56;-0.60;99.90
5508;DHT22;2776;51.046;6.772;2022-12-17T05:21:41;-0.70;99.90
5508;DHT22;2776;51.046;6.772;2022-12-17T05:24:25;-0.80;99.90
5508;DHT22;2776;51.046;6.772;2022-12-17T05:27:09;-0.80;99.90
5508;DHT22;2776;51.046;6.772;2022-12-17T05:29:54;-0.80;99.90
5508;DHT22;2776;51.046;6.772;2022-12-17T05:32:38;-0.80;99.90
5508;DHT22;2776;51.046;6.772;2022-12-17T05:35:22;-0.80;99.90
5508;DHT22;2776;51.046;6.772;2022-12-17T05:38:08;-0.80;99.90
5508;DHT22;2776;51.046;6.772;2022-12-17T05:40:55;-0.90;99.90
5508;DHT22;2776;51.046;6.772;2022-12-17T05:43:39;-0.90;99.90
5508;DHT22;2776;51.046;6.772;2022-12-17T05:46:25;-0.90;99.90
5508;DHT22;2776;51.046;6.772;2022-12-17T05:49:09;-0.90;99.90
5508;DHT22;2776;51.046;6.772;2022-12-17T05:51:53;-0.90;99.90
5508;DHT22;2776;51.046;6.772;2022-12-17T05:54:38;-0.90;99.90
5508;DHT22;2776;51.046;6.772;2022-12-17T05:57:22;-1.00;99.90
5508;DHT22;2776;51.046;6.772;2022-12-17T06:00:08;-1.00;99.90
5508;DHT22;2776;51.046;6.772;2022-12-17T06:02:57;-1.00;99.90
5508;DHT22;2776;51.046;6.772;2022-12-17T06:05:42;-1.00;99.90
5508;DHT22;2776;51.046;6.772;2022-12-17T06:08:26;-1.00;99.90
5508;DHT22;2776;51.046;6.772;2022-12-17T06:11:21;-1.00;99.90
5508;DHT22;2776;51.046;6.772;2022-12-17T06:14:06;-1.00;99.90
5508;DHT22;2776;51.046;6.772;2022-12-17T06:16:50;-1.10;99.90
5508;DHT22;2776;51.046;6.772;2022-12-17T06:19:36;-1.20;99.90
5508;DHT22;2776;51.046;6.772;2022-12-17T06:22:20;-1.30;99.90
5508;DHT22;2776;51.046;6.772;2022-12-17T06:25:04;-1.30;99.90
5508;DHT22;2776;51.046;6.772;2022-12-17T06:27:49;-1.30;99.90
5508;DHT22;2776;51.046;6.772;2022-12-17T06:30:40;-1.30;99.90
5508;DHT22;2776;51.046;6.772;2022-12-17T06:33:24;-1.40;99.90
5508;DHT22;2776;51.046;6.772;2022-12-17T06:36:09;-1.30;99.90
5508;DHT22;2776;51.046;6.772;2022-12-17T06:38:54;-1.40;99.90
5508;DHT22;2776;51.046;6.772;2022-12-17T06:41:38;-1.40;99.90
5508;DHT22;2776;51.046;6.772;2022-12-17T06:44:22;-1.50;99.90
5508;DHT22;2776;51.046;6.772;2022-12-17T06:47:06;-1.60;99.90
5508;DHT22;2776;51.046;6.772;2022-12-17T06:49:50;-1.70;99.90
5508;DHT22;2776;51.046;6.772;2022-12-17T06:52:58;-1.70;99.90
5508;DHT22;2776;51.046;6.772;2022-12-17T06:55:43;-1.70;99.90
5508;DHT22;2776;51.046;6.772;2022-12-17T06:58:27;-1.60;99.90
5508;DHT22;2776;51.046;6.772;2022-12-17T07:01:11;-1.60;99.90
5508;DHT22;2776;51.046;6.772;2022-12-17T07:03:55;-1.70;99.90
5508;DHT22;2776;51.046;6.772;2022-12-17T07:06:39;-1.70;99.90
5508;DHT22;2776;51.046;6.772;2022-12-17T07:09:25;-1.80;99.90
5508;DHT22;2776;51.046;6.772;2022-12-17T07:12:09;-1.90;99.90
5508;DHT22;2776;51.046;6.772;2022-12-17T07:14:53;-1.90;99.90
5508;DHT22;2776;51.046;6.772;2022-12-17T07:17:39;-1.90;99.90
5508;DHT22;2776;51.046;6.772;2022-12-17T07:20:24;-2.00;99.90
5508;DHT22;2776;51.046;6.772;2022-12-17T07:23:08;-2.00;99.90
5508;DHT22;2776;51.046;6.772;2022-12-17T07:25:55;-2.00;99.90
5508;DHT22;2776;51.046;6.772;2022-12-17T07:28:40;-2.10;99.90
5508;DHT22;2776;51.046;6.772;2022-12-17T07:31:24;-2.20;99.90
5508;DHT22;2776;51.046;6.772;2022-12-17T07:34:16;-2.10;99.90
5508;DHT22;2776;51.046;6.772;2022-12-17T07:37:00;-2.10;99.90
5508;DHT22;2776;51.046;6.772;2022-12-17T07:39:44;-2.20;99.90
5508;DHT22;2776;51.046;6.772;2022-12-17T07:42:30;-2.20;99.90
5508;DHT22;2776;51.046;6.772;2022-12-17T07:45:14;-2.20;99.90
5508;DHT22;2776;51.046;6.772;2022-12-17T07:47:58;-2.30;99.90
5508;DHT22;2776;51.046;6.772;2022-12-17T07:50:46;-2.30;99.90
5508;DHT22;2776;51.046;6.772;2022-12-17T07:53:31;-2.40;99.90
5508;DHT22;2776;51.046;6.772;2022-12-17T07:56:15;-2.40;99.90
5508;DHT22;2776;51.046;6.772;2022-12-17T07:59:01;-2.40;99.90
5508;DHT22;2776;51.046;6.772;2022-12-17T08:01:45;-2.40;99.90
5508;DHT22;2776;51.046;6.772;2022-12-17T08:04:29;-2.40;99.90
5508;DHT22;2776;51.046;6.772;2022-12-17T08:07:13;-2.40;99.90
5508;DHT22;2776;51.046;6.772;2022-12-17T08:09:57;-2.50;99.90
5508;DHT22;2776;51.046;6.772;2022-12-17T08:12:41;-2.50;99.90
5508;DHT22;2776;51.046;6.772;2022-12-17T08:15:37;-2.60;99.90
5508;DHT22;2776;51.046;6.772;2022-12-17T08:18:21;-2.60;99.90
5508;DHT22;2776;51.046;6.772;2022-12-17T08:21:05;-2.60;99.90
5508;DHT22;2776;51.046;6.772;2022-12-17T08:23:49;-2.70;99.90
5508;DHT22;2776;51.046;6.772;2022-12-17T08:26:30;-2.80;99.90
5508;DHT22;2776;51.046;6.772;2022-12-17T08:29:14;-2.80;99.90
5508;DHT22;2776;51.046;6.772;2022-12-17T08:32:00;-2.80;99.90
5508;DHT22;2776;51.046;6.772;2022-12-17T08:34:44;-3.00;99.90
5508;DHT22;2776;51.046;6.772;2022-12-17T08:37:29;-2.90;99.90
5508;DHT22;2776;51.046;6.772;2022-12-17T08:40:13;-3.00;99.90
5508;DHT22;2776;51.046;6.772;2022-12-17T08:42:58;-2.90;99.90
5508;DHT22;2776;51.046;6.772;2022-12-17T08:45:45;-2.90;99.90
5508;DHT22;2776;51.046;6.772;2022-12-17T08:48:32;-3.00;99.90
5508;DHT22;2776;51.046;6.772;2022-12-17T08:51:16;-3.00;99.90
5508;DHT22;2776;51.046;6.772;2022-12-17T08:54:01;-2.90;99.90
5508;DHT22;2776;51.046;6.772;2022-12-17T08:56:45;-2.90;99.90
5508;DHT22;2776;51.046;6.772;2022-12-17T08:59:29;-2.90;99.90
5508;DHT22;2776;51.046;6.772;2022-12-17T09:02:13;-3.00;99.90
5508;DHT22;2776;51.046;6.772;2022-12-17T09:04:58;-3.00;99.90
5508;DHT22;2776;51.046;6.772;2022-12-17T09:07:43;-3.00;99.90
5508;DHT22;2776;51.046;6.772;2022-12-17T09:10:27;-3.00;99.90
5508;DHT22;2776;51.046;6.772;2022-12-17T09:13:11;-3.10;99.90
5508;DHT22;2776;51.046;6.772;2022-12-17T09:15:55;-3.00;99.90
5508;DHT22;2776;51.046;6.772;2022-12-17T09:18:40;-2.90;99.90
5508;DHT22;2776;51.046;6.772;2022-12-17T09:21:27;-2.90;99.90
5508;DHT22;2776;51.046;6.772;2022-12-17T09:24:11;-3.00;99.90
5508;DHT22;2776;51.046;6.772;2022-12-17T09:26:56;-2.80;99.90
5508;DHT22;2776;51.046;6.772;2022-12-17T09:29:40;-2.80;99.90
5508;DHT22;2776;51.046;6.772;2022-12-17T09:32:24;-2.80;99.90
5508;DHT22;2776;51.046;6.772;2022-12-17T09:35:09;-2.80;99.90
5508;DHT22;2776;51.046;6.772;2022-12-17T09:37:55;-2.70;99.90
5508;DHT22;2776;51.046;6.772;2022-12-17T09:40:40;-2.70;99.90
5508;DHT22;2776;51.046;6.772;2022-12-17T09:43:33;-2.60;99.90
5508;DHT22;2776;51.046;6.772;2022-12-17T09:46:23;-2.50;99.90
5508;DHT22;2776;51.046;6.772;2022-12-17T09:49:15;-2.50;99.90
5508;DHT22;2776;51.046;6.772;2022-12-17T09:52:01;-2.50;99.90
5508;DHT22;2776;51.046;6.772;2022-12-17T09:54:49;-2.50;99.90
5508;DHT22;2776;51.046;6.772;2022-12-17T09:57:36;-2.50;99.90
5508;DHT22;2776;51.046;6.772;2022-12-17T10:00:22;-2.50;99.90
5508;DHT22;2776;51.046;6.772;2022-12-17T10:03:10;-2.40;99.90
5508;DHT22;2776;51.046;6.772;2022-12-17T10:05:56;-2.30;99.90
5508;DHT22;2776;51.046;6.772;2022-12-17T10:08:41;-2.30;99.90
5508;DHT22;2776;51.046;6.772;2022-12-17T10:11:29;-2.30;99.90
5508;DHT22;2776;51.046;6.772;2022-12-17T10:14:16;-2.20;99.90
5508;DHT22;2776;51.046;6.772;2022-12-17T10:17:01;-2.20;99.90
5508;DHT22;2776;51.046;6.772;2022-12-17T10:19:49;-2.10;99.90
5508;DHT22;2776;51.046;6.772;2022-12-17T10:22:41;-2.10;99.90
5508;DHT22;2776;51.046;6.772;2022-12-17T10:25:26;-2.00;99.90
5508;DHT22;2776;51.046;6.772;2022-12-17T10:28:13;-1.90;99.90
5508;DHT22;2776;51.046;6.772;2022-12-17T10:30:59;-1.90;99.90
5508;DHT22;2776;51.046;6.772;2022-12-17T10:33:44;-2.00;99.90
5508;DHT22;2776;51.046;6.772;2022-12-17T10:36:30;-1.90;99.90
5508;DHT22;2776;51.046;6.772;2022-12-17T10:39:16;-2.00;99.90
5508;DHT22;2776;51.046;6.772;2022-12-17T10:42:00;-2.00;99.90
5508;DHT22;2776;51.046;6.772;2022-12-17T10:44:46;-1.90;99.90
5508;DHT22;2776;51.046;6.772;2022-12-17T10:47:32;-1.90;99.90
5508;DHT22;2776;51.046;6.772;2022-12-17T10:50:25;-1.90;99.90
5508;DHT22;2776;51.046;6.772;2022-12-17T10:53:16;-2.00;99.90
5508;DHT22;2776;51.046;6.772;2022-12-17T10:56:03;-2.00;99.90
5508;DHT22;2776;51.046;6.772;2022-12-17T10:58:49;-2.00;99.90
5508;DHT22;2776;51.046;6.772;2022-12-17T11:01:37;-2.00;99.90
5508;DHT22;2776;51.046;6.772;2022-12-17T11:04:25;-2.00;99.90
5508;DHT22;2776;51.046;6.772;2022-12-17T11:07:14;-1.90;99.90
5508;DHT22;2776;51.046;6.772;2022-12-17T11:10:01;-1.80;99.90
5508;DHT22;2776;51.046;6.772;2022-12-17T11:12:53;-1.70;99.90
5508;DHT22;2776;51.046;6.772;2022-12-17T11:15:42;-1.70;99.90
5508;DHT22;2776;51.046;6.772;2022-12-17T11:18:31;-1.80;99.90
5508;DHT22;2776;51.046;6.772;2022-12-17T11:21:20;-1.80;99.90
5508;DHT22;2776;51.046;6.772;2022-12-17T11:24:23;-1.80;99.90
5508;DHT22;2776;51.046;6.772;2022-12-17T11:27:15;-1.70;99.90
5508;DHT22;2776;51.046;6.772;2022-12-17T11:30:00;-1.70;99.90
5508;DHT22;2776;51.046;6.772;2022-12-17T11:32:56;-1.50;99.90
5508;DHT22;2776;51.046;6.772;2022-12-17T11:35:50;-1.60;99.90
5508;DHT22;2776;51.046;6.772;2022-12-17T11:38:42;-1.70;99.90
5508;DHT22;2776;51.046;6.772;2022-12-17T11:41:34;-1.80;99.90
5508;DHT22;2776;51.046;6.772;2022-12-17T11:44:38;-1.80;99.90
5508;DHT22;2776;51.046;6.772;2022-12-17T11:47:33;-1.70;99.90
5508;DHT22;2776;51.046;6.772;2022-12-17T11:50:25;-1.60;99.90
5508;DHT22;2776;51.046;6.772;2022-12-17T11:53:42;-1.50;99.90
5508;DHT22;2776;51.046;6.772;2022-12-17T11:56:34;-1.60;99.90
5508;DHT22;2776;51.046;6.772;2022-12-17T11:59:26;-1.60;99.90
5508;DHT22;2776;51.046;6.772;2022-12-17T12:02:28;-1.50;99.90
5508;DHT22;2776;51.046;6.772;2022-12-17T12:05:20;-1.40;99.90
5508;DHT22;2776;51.046;6.772;2022-12-17T12:08:11;-1.40;99.90
5508;DHT22;2776;51.046;6.772;2022-12-17T12:11:06;-1.50;99.90
5508;DHT22;2776;51.046;6.772;2022-12-17T12:14:00;-1.50;99.90
5508;DHT22;2776;51.046;6.772;2022-12-17T12:16:51;-1.50;99.90
5508;DHT22;2776;51.046;6.772;2022-12-17T12:19:47;-1.40;99.90
5508;DHT22;2776;51.046;6.772;2022-12-17T12:22:39;-1.30;99.90
5508;DHT22;2776;51.046;6.772;2022-12-17T12:25:32;-1.30;99.90
5508;DHT22;2776;51.046;6.772;2022-12-17T12:28:25;-1.20;99.90
5508;DHT22;2776;51.046;6.772;2022-12-17T12:31:23;-1.30;99.90
5508;DHT22;2776;51.046;6.772;2022-12-17T12:34:13;-1.40;99.90
5508;DHT22;2776;51.046;6.772;2022-12-17T12:37:04;-1.30;99.90
5508;DHT22;2776;51.046;6.772;2022-12-17T12:39:55;-1.30;99.90
5508;DHT22;2776;51.046;6.772;2022-12-17T12:42:46;-1.20;99.90
5508;DHT22;2776;51.046;6.772;2022-12-17T12:45:46;-1.00;99.90
5508;DHT22;2776;51.046;6.772;2022-12-17T12:48:39;-0.80;99.90
5508;DHT22;2776;51.046;6.772;2022-12-17T12:51:26;-0.80;99.90
5508;DHT22;2776;51.046;6.772;2022-12-17T12:54:25;-0.80;99.90
5508;DHT22;2776;51.046;6.772;2022-12-17T12:57:33;-0.70;99.90
5508;DHT22;2776;51.046;6.772;2022-12-17T13:00:30;-0.70;99.90
5508;DHT22;2776;51.046;6.772;2022-12-17T13:03:28;-0.80;99.90
5508;DHT22;2776;51.046;6.772;2022-12-17T13:06:36;-0.80;99.90
5508;DHT22;2776;51.046;6.772;2022-12-17T13:09:04;-0.90;99.90
5508;DHT22;2776;51.046;6.772;2022-12-17T13:11:36;-1.00;99.90
5508;DHT22;2776;51.046;6.772;2022-12-17T13:14:10;-1.10;99.90
5508;DHT22;2776;51.046;6.772;2022-12-17T13:16:49;-1.20;99.90
5508;DHT22;2776;51.046;6.772;2022-12-17T13:19:30;-1.20;99.90
5508;DHT22;2776;51.046;6.772;2022-12-17T13:24:52;-1.20;99.90
5508;DHT22;2776;51.046;6.772;2022-12-17T13:27:29;-1.40;99.90
5508;DHT22;2776;51.046;6.772;2022-12-17T13:29:56;-1.30;99.90
5508;DHT22;2776;51.046;6.772;2022-12-17T13:32:28;-1.40;99.90
5508;DHT22;2776;51.046;6.772;2022-12-17T13:35:06;-1.40;99.90
5508;DHT22;2776;51.046;6.772;2022-12-17T13:37:44;-1.50;99.90
5508;DHT22;2776;51.046;6.772;2022-12-17T13:40:29;-1.50;99.90
5508;DHT22;2776;51.046;6.772;2022-12-17T13:42:58;-1.40;99.90
5508;DHT22;2776;51.046;6.772;2022-12-17T13:45:26;-1.40;99.90
5508;DHT22;2776;51.046;6.772;2022-12-17T13:47:54;-1.40;99.90
5508;DHT22;2776;51.046;6.772;2022-12-17T13:50:24;-1.50;99.90
5508;DHT22;2776;51.046;6.772;2022-12-17T13:52:52;-1.50;99.90
5508;DHT22;2776;51.046;6.772;2022-12-17T13:55:20;-1.50;99.90
5508;DHT22;2776;51.046;6.772;2022-12-17T13:57:48;-1.40;99.90
5508;DHT22;2776;51.046;6.772;2022-12-17T14:00:21;-1.40;99.90
5508;DHT22;2776;51.046;6.772;2022-12-17T14:02:48;-1.50;99.90
5508;DHT22;2776;51.046;6.772;2022-12-17T14:05:25;-1.40;99.90
5508;DHT22;2776;51.046;6.772;2022-12-17T14:07:52;-1.40;99.90
5508;DHT22;2776;51.046;6.772;2022-12-17T14:10:20;-1.40;99.90
5508;DHT22;2776;51.046;6.772;2022-12-17T14:12:47;-1.40;99.90
5508;DHT22;2776;51.046;6.772;2022-12-17T14:15:20;-1.40;99.90
5508;DHT22;2776;51.046;6.772;2022-12-17T14:17:49;-1.40;99.90
5508;DHT22;2776;51.046;6.772;2022-12-17T14:20:18;-1.40;99.90
5508;DHT22;2776;51.046;6.772;2022-12-17T14:22:49;-1.40;99.90
5508;DHT22;2776;51.046;6.772;2022-12-17T14:25:18;-1.50;99.90
5508;DHT22;2776;51.046;6.772;2022-12-17T14:27:53;-1.50;99.90
5508;DHT22;2776;51.046;6.772;2022-12-17T14:30:23;-1.60;99.90
5508;DHT22;2776;51.046;6.772;2022-12-17T14:32:50;-1.60;99.90
5508;DHT22;2776;51.046;6.772;2022-12-17T14:35:23;-1.60;99.90
5508;DHT22;2776;51.046;6.772;2022-12-17T14:37:51;-1.60;99.90
5508;DHT22;2776;51.046;6.772;2022-12-17T14:40:18;-1.60;99.90
5508;DHT22;2776;51.046;6.772;2022-12-17T14:42:45;-1.70;99.90
5508;DHT22;2776;51.046;6.772;2022-12-17T14:45:22;-1.70;99.90
5508;DHT22;2776;51.046;6.772;2022-12-17T14:47:53;-1.70;99.90
5508;DHT22;2776;51.046;6.772;2022-12-17T14:50:27;-1.70;99.90
5508;DHT22;2776;51.046;6.772;2022-12-17T14:52:57;-1.70;99.90
5508;DHT22;2776;51.046;6.772;2022-12-17T14:55:31;-1.70;99.90
5508;DHT22;2776;51.046;6.772;2022-12-17T14:58:23;-1.70;99.90
5508;DHT22;2776;51.046;6.772;2022-12-17T15:00:52;-1.70;99.90
5508;DHT22;2776;51.046;6.772;2022-12-17T15:03:23;-1.70;99.90
5508;DHT22;2776;51.046;6.772;2022-12-17T15:05:57;-1.60;99.90
5508;DHT22;2776;51.046;6.772;2022-12-17T15:08:28;-1.70;99.90
5508;DHT22;2776;51.046;6.772;2022-12-17T15:11:02;-1.80;99.90
5508;DHT22;2776;51.046;6.772;2022-12-17T15:13:28;-1.80;99.90
5508;DHT22;2776;51.046;6.772;2022-12-17T15:15:55;-1.80;99.90
5508;DHT22;2776;51.046;6.772;2022-12-17T15:18:22;-1.80;99.90
5508;DHT22;2776;51.046;6.772;2022-12-17T15:20:49;-1.80;99.90
5508;DHT22;2776;51.046;6.772;2022-12-17T15:23:16;-1.90;99.90
5508;DHT22;2776;51.046;6.772;2022-12-17T15:25:46;-1.90;99.90
5508;DHT22;2776;51.046;6.772;2022-12-17T15:28:15;-1.90;99.90
5508;DHT22;2776;51.046;6.772;2022-12-17T15:30:42;-2.00;99.90
5508;DHT22;2776;51.046;6.772;2022-12-17T15:33:10;-2.10;99.90
5508;DHT22;2776;51.046;6.772;2022-12-17T15:35:37;-2.10;99.90
5508;DHT22;2776;51.046;6.772;2022-12-17T15:38:05;-2.20;99.90
5508;DHT22;2776;51.046;6.772;2022-12-17T15:40:32;-2.20;99.90
5508;DHT22;2776;51.046;6.772;2022-12-17T15:43:02;-2.30;99.90
5508;DHT22;2776;51.046;6.772;2022-12-17T15:45:38;-2.30;99.90
5508;DHT22;2776;51.046;6.772;2022-12-17T15:48:05;-2.30;99.90
5508;DHT22;2776;51.046;6.772;2022-12-17T15:50:32;-2.40;99.90
5508;DHT22;2776;51.046;6.772;2022-12-17T15:52:58;-2.50;99.90
5508;DHT22;2776;51.046;6.772;2022-12-17T15:55:25;-2.50;99.90
5508;DHT22;2776;51.046;6.772;2022-12-17T15:57:52;-2.60;99.90
5508;DHT22;2776;51.046;6.772;2022-12-17T16:00:20;-2.60;99.90
5508;DHT22;2776;51.046;6.772;2022-12-17T16:02:47;-2.60;99.90
5508;DHT22;2776;51.046;6.772;2022-12-17T16:05:14;-2.60;99.90
5508;DHT22;2776;51.046;6.772;2022-12-17T16:07:41;-2.70;99.90
5508;DHT22;2776;51.046;6.772;2022-12-17T16:10:09;-2.70;99.90
5508;DHT22;2776;51.046;6.772;2022-12-17T16:12:37;-2.80;99.90
5508;DHT22;2776;51.046;6.772;2022-12-17T16:15:04;-2.90;99.90
5508;DHT22;2776;51.046;6.772;2022-12-17T16:17:33;-2.90;99.90
5508;DHT22;2776;51.046;6.772;2022-12-17T16:20:00;-2.90;99.90
5508;DHT22;2776;51.046;6.772;2022-12-17T16:22:27;-3.00;99.90
5508;DHT22;2776;51.046;6.772;2022-12-17T16:24:54;-3.10;99.90
5508;DHT22;2776;51.046;6.772;2022-12-17T16:27:21;-3.10;99.90
5508;DHT22;2776;51.046;6.772;2022-12-17T16:29:48;-3.10;99.90
5508;DHT22;2776;51.046;6.772;2022-12-17T16:32:15;-3.10;99.90
5508;DHT22;2776;51.046;6.772;2022-12-17T16:34:43;-3.20;99.90
5508;DHT22;2776;51.046;6.772;2022-12-17T16:37:11;-3.20;99.90
5508;DHT22;2776;51.046;6.772;2022-12-17T16:39:38;-3.30;99.90
5508;DHT22;2776;51.046;6.772;2022-12-17T16:42:04;-3.40;99.90
5508;DHT22;2776;51.046;6.772;2022-12-17T16:44:31;-3.40;99.90
5508;DHT22;2776;51.046;6.772;2022-12-17T16:46:58;-3.40;99.90
5508;DHT22;2776;51.046;6.772;2022-12-17T16:49:25;-3.30;99.90
5508;DHT22;2776;51.046;6.772;2022-12-17T16:51:54;-3.30;99.90
5508;DHT22;2776;51.046;6.772;2022-12-17T16:54:22;-3.40;99.90
5508;DHT22;2776;51.046;6.772;2022-12-17T16:56:50;-3.30;99.90
5508;DHT22;2776;51.046;6.772;2022-12-17T16:59:17;-3.30;99.90
5508;DHT22;2776;51.046;6.772;2022-12-17T17:01:47;-3.40;99.90
5508;DHT22;2776;51.046;6.772;2022-12-17T17:04:15;-3.40;99.90
5508;DHT22;2776;51.046;6.772;2022-12-17T17:06:44;-3.40;99.90
5508;DHT22;2776;51.046;6.772;2022-12-17T17:09:13;-3.50;99.90
5508;DHT22;2776;51.046;6.772;2022-12-17T17:11:40;-3.50;99.90
5508;DHT22;2776;51.046;6.772;2022-12-17T17:14:07;-3.50;99.90
5508;DHT22;2776;51.046;6.772;2022-12-17T17:16:35;-3.50;99.90
5508;DHT22;2776;51.046;6.772;2022-12-17T17:19:03;-3.50;99.90
5508;DHT22;2776;51.046;6.772;2022-12-17T17:21:31;-3.50;99.90
5508;DHT22;2776;51.046;6.772;2022-12-17T17:24:00;-3.40;99.90
5508;DHT22;2776;51.046;6.772;2022-12-17T17:26:30;-3.50;99.90
5508;DHT22;2776;51.046;6.772;2022-12-17T17:28:57;-3.50;99.90
5508;DHT22;2776;51.046;6.772;2022-12-17T17:31:25;-3.50;99.90
5508;DHT22;2776;51.046;6.772;2022-12-17T17:33:52;-3.60;99.90
5508;DHT22;2776;51.046;6.772;2022-12-17T17:36:21;-3.50;99.90
5508;DHT22;2776;51.046;6.772;2022-12-17T17:38:51;-3.50;99.90
5508;DHT22;2776;51.046;6.772;2022-12-17T17:41:24;-3.50;99.90